Time;durP1;ratioP1;P1;durP2;ratioP2;P2;SDS_P1;SDS_P2;PMS_P1;PMS_P2;Temp;Humidity;BMP_temperature;BMP_pressure;BME280_temperature;BME280_humidity;BME280_pressure;Samples;Min_cycle;Max_cycle;Signal;HPM_P1;HPM_P2
2021/04/13 00:01:23;;;;;;;1.43;1.30;;;4.90;99.90;;;;;;5067384;28;20211;-75
2021/04/13 00:03:54;;;;;;;1.47;1.30;;;4.90;99.90;;;;;;5067706;28;20191;-75
2021/04/13 00:06:24;;;;;;;1.47;1.37;;;4.80;99.90;;;;;;5067716;28;20627;-75
2021/04/13 00:08:55;;;;;;;1.40;1.30;;;4.80;99.90;;;;;;5067760;28;20286;-75
2021/04/13 00:11:21;;;;;;;1.70;1.60;;;4.80;99.90;;;;;;5067641;28;20605;-75
2021/04/13 00:13:51;;;;;;;1.50;1.40;;;4.80;99.90;;;;;;5067707;28;20210;-75
2021/04/13 00:16:20;;;;;;;1.80;1.40;;;4.80;99.90;;;;;;5067226;28;20288;-75
2021/04/13 00:18:48;;;;;;;2.23;1.17;;;4.80;99.90;;;;;;5067696;28;20229;-75
2021/04/13 00:21:18;;;;;;;3.20;1.50;;;4.90;99.90;;;;;;5067747;28;20207;-75
2021/04/13 00:23:45;;;;;;;1.47;1.37;;;4.90;99.90;;;;;;5070413;28;20203;-75
2021/04/13 00:26:19;;;;;;;2.70;1.50;;;4.60;99.90;;;;;;5071444;28;20569;-75
2021/04/13 00:28:47;;;;;;;1.60;1.50;;;4.50;99.90;;;;;;5071204;28;20241;-75
2021/04/13 00:31:19;;;;;;;2.33;1.43;;;4.60;99.90;;;;;;5071031;28;20573;-75
2021/04/13 00:33:46;;;;;;;1.47;1.37;;;4.50;99.90;;;;;;5071087;28;20624;-75
2021/04/13 00:36:16;;;;;;;2.27;1.70;;;4.50;99.90;;;;;;5071166;28;20239;-75
2021/04/13 00:38:43;;;;;;;2.07;1.73;;;4.20;99.90;;;;;;5070915;28;20216;-75
2021/04/13 00:41:16;;;;;;;2.60;1.80;;;4.20;99.90;;;;;;5071102;28;20214;-75
2021/04/13 00:43:45;;;;;;;1.80;1.70;;;4.20;99.90;;;;;;5071012;28;20245;-76
2021/04/13 00:46:14;;;;;;;1.87;1.77;;;3.90;99.90;;;;;;5070952;28;20428;-76
2021/04/13 00:48:43;;;;;;;1.70;1.60;;;4.00;99.90;;;;;;5070692;28;20219;-75
2021/04/13 00:51:17;;;;;;;2.23;1.70;;;3.70;99.90;;;;;;5070875;28;20199;-75
2021/04/13 00:53:45;;;;;;;1.70;1.57;;;3.90;99.90;;;;;;5070477;28;20192;-75
2021/04/13 00:56:16;;;;;;;2.63;1.80;;;3.80;99.90;;;;;;5070642;28;20231;-74
2021/04/13 00:58:45;;;;;;;1.67;1.57;;;3.80;99.90;;;;;;5070447;28;20199;-75
2021/04/13 01:01:18;;;;;;;1.70;1.60;;;3.90;99.90;;;;;;5070614;28;20399;-75
2021/04/13 01:03:51;;;;;;;1.70;1.60;;;3.80;99.90;;;;;;5070224;28;20575;-74
2021/04/13 01:06:25;;;;;;;1.77;1.60;;;3.60;99.90;;;;;;5070604;28;20581;-75
2021/04/13 01:09:10;;;;;;;1.80;1.70;;;3.50;99.90;;;;;;5070291;28;20199;-75
2021/04/13 01:11:41;;;;;;;2.13;1.80;;;3.40;99.90;;;;;;5070066;28;20673;-75
2021/04/13 01:14:09;;;;;;;1.70;1.60;;;3.30;99.90;;;;;;5078559;28;20683;-75
2021/04/13 01:16:38;;;;;;;1.97;1.87;;;3.50;99.90;;;;;;5070849;28;20239;-74
2021/04/13 01:19:12;;;;;;;1.80;1.70;;;3.40;99.90;;;;;;5087125;28;20211;-74
2021/04/13 01:21:50;;;;;;;1.67;1.57;;;3.50;99.90;;;;;;5090258;28;20195;-74
2021/04/13 01:24:22;;;;;;;2.27;2.10;;;3.50;99.90;;;;;;5090182;28;20195;-74
2021/04/13 01:26:51;;;;;;;1.87;1.70;;;3.50;99.90;;;;;;5081779;28;20811;-74
2021/04/13 01:29:21;;;;;;;2.60;2.40;;;3.60;99.90;;;;;;5069955;28;20211;-74
2021/04/13 01:31:51;;;;;;;2.73;1.90;;;3.60;99.90;;;;;;5069658;28;20239;-73
2021/04/13 01:34:23;;;;;;;1.83;1.73;;;3.60;99.90;;;;;;5070028;28;20207;-74
2021/04/13 01:37:09;;;;;;;2.37;2.17;;;3.60;99.90;;;;;;5069818;28;20225;-74
2021/04/13 01:39:45;;;;;;;3.17;1.90;;;3.50;99.90;;;;;;5069787;28;20261;-74
2021/04/13 01:42:12;;;;;;;3.00;1.90;;;3.40;99.90;;;;;;5069678;28;20700;-74
2021/04/13 01:44:43;;;;;;;2.10;2.00;;;3.30;99.90;;;;;;5084303;28;20214;-74
2021/04/13 01:47:13;;;;;;;2.93;2.30;;;3.30;99.90;;;;;;5089761;28;20685;-74
2021/04/13 01:49:46;;;;;;;3.07;2.07;;;3.40;99.90;;;;;;5089748;28;20198;-74
2021/04/13 01:52:18;;;;;;;2.00;1.90;;;3.50;99.90;;;;;;5090005;28;20206;-74
2021/04/13 01:54:44;;;;;;;2.40;2.23;;;3.60;99.90;;;;;;5089770;28;20199;-74
2021/04/13 01:57:17;;;;;;;2.37;2.17;;;3.60;99.90;;;;;;5089942;28;20235;-74
2021/04/13 01:59:50;;;;;;;2.53;2.30;;;3.70;99.90;;;;;;5089577;28;20233;-74
2021/04/13 02:02:21;;;;;;;2.50;2.17;;;3.70;99.90;;;;;;5089646;28;20203;-74
2021/04/13 02:04:52;;;;;;;2.33;2.13;;;3.70;99.90;;;;;;5089419;28;20641;-74
2021/04/13 02:07:34;;;;;;;2.33;2.13;;;3.60;99.90;;;;;;5089496;28;20197;-74
2021/04/13 02:10:10;;;;;;;2.13;2.03;;;3.60;99.90;;;;;;5089435;28;20191;-74
2021/04/13 02:12:39;;;;;;;2.60;2.40;;;3.70;99.90;;;;;;5089552;28;20203;-75
2021/04/13 02:15:17;;;;;;;2.70;2.50;;;3.50;99.90;;;;;;5089186;28;20238;-74
2021/04/13 02:17:48;;;;;;;3.03;2.33;;;3.30;99.90;;;;;;5089129;28;20245;-74
2021/04/13 02:20:19;;;;;;;2.93;2.73;;;3.40;99.90;;;;;;5088985;28;20654;-74
2021/04/13 02:22:47;;;;;;;3.17;2.97;;;3.30;99.90;;;;;;5089181;28;20200;-74
2021/04/13 02:25:18;;;;;;;4.00;3.40;;;3.20;99.90;;;;;;5089120;28;20210;-75
2021/04/13 02:27:46;;;;;;;3.50;3.30;;;3.20;99.90;;;;;;5089076;28;20610;-75
2021/04/13 02:30:15;;;;;;;3.87;3.57;;;3.20;99.90;;;;;;5089137;28;20590;-75
2021/04/13 02:32:44;;;;;;;6.60;5.00;;;3.10;99.90;;;;;;5089090;28;20217;-75
2021/04/13 02:35:22;;;;;;;4.20;3.90;;;3.20;99.90;;;;;;5089073;28;20297;-75
2021/04/13 02:37:51;;;;;;;5.33;4.53;;;3.30;99.90;;;;;;5088897;28;20261;-75
2021/04/13 02:40:23;;;;;;;4.30;3.90;;;3.40;99.90;;;;;;5088943;28;20198;-76
2021/04/13 02:42:53;;;;;;;8.43;6.50;;;3.40;99.90;;;;;;5089119;28;20194;-75
2021/04/13 02:45:28;;;;;;;6.13;5.53;;;3.50;99.90;;;;;;5088665;28;20213;-76
2021/04/13 02:48:01;;;;;;;6.80;6.10;;;3.50;99.90;;;;;;5088906;28;20251;-76
2021/04/13 02:50:28;;;;;;;12.50;9.73;;;3.60;99.90;;;;;;5088992;28;20216;-76
2021/04/13 02:52:56;;;;;;;13.83;10.43;;;3.70;99.90;;;;;;5088791;28;20205;-76
2021/04/13 02:55:26;;;;;;;6.27;5.67;;;3.70;99.90;;;;;;5088760;28;20242;-76
2021/04/13 02:57:54;;;;;;;5.40;4.90;;;3.70;99.90;;;;;;5088782;28;20238;-76
2021/04/13 03:00:24;;;;;;;4.57;4.17;;;3.80;99.90;;;;;;5089130;28;20202;-76
2021/04/13 03:02:55;;;;;;;4.13;3.77;;;3.80;99.90;;;;;;5088649;28;20232;-75
2021/04/13 03:05:24;;;;;;;3.77;3.47;;;3.80;99.90;;;;;;5082789;28;20257;-74
2021/04/13 03:07:51;;;;;;;3.80;3.50;;;3.80;99.90;;;;;;5068065;28;20594;-77
2021/04/13 03:10:26;;;;;;;4.00;3.60;;;3.80;99.90;;;;;;5076760;28;20202;-76
2021/04/13 03:12:54;;;;;;;3.97;3.67;;;3.50;99.90;;;;;;5085928;28;20252;-75
2021/04/13 03:15:25;;;;;;;3.80;3.50;;;3.30;99.90;;;;;;5072858;28;20235;-75
2021/04/13 03:17:54;;;;;;;3.97;3.70;;;3.40;99.90;;;;;;5064296;28;20238;-75
2021/04/13 03:20:24;;;;;;;3.77;3.47;;;3.40;99.90;;;;;;5083818;28;20782;-76
2021/04/13 03:22:51;;;;;;;4.37;4.07;;;3.50;99.90;;;;;;5084268;28;20420;-75
2021/04/13 03:25:19;;;;;;;4.60;4.10;;;3.40;99.90;;;;;;5084692;28;20207;-76
2021/04/13 03:27:46;;;;;;;3.80;3.50;;;3.10;99.90;;;;;;5084776;28;20215;-75
2021/04/13 03:30:18;;;;;;;4.20;3.80;;;3.20;99.90;;;;;;5083894;28;20211;-72
2021/04/13 03:32:52;;;;;;;4.70;4.30;;;3.20;99.90;;;;;;5064025;28;20639;-72
2021/04/13 03:35:20;;;;;;;4.80;4.40;;;3.30;99.90;;;;;;5064084;28;20647;-75
2021/04/13 03:37:48;;;;;;;4.60;4.27;;;3.20;99.90;;;;;;5063800;28;20631;-75
2021/04/13 03:40:17;;;;;;;5.43;4.97;;;3.10;99.90;;;;;;5064358;28;20615;-75
2021/04/13 03:42:44;;;;;;;5.70;5.10;;;3.20;99.90;;;;;;5063896;28;20624;-75
2021/04/13 03:45:14;;;;;;;5.10;4.70;;;3.20;99.90;;;;;;5064182;28;20557;-75
2021/04/13 03:47:40;;;;;;;4.00;3.80;;;3.30;99.90;;;;;;5063772;28;20265;-75
2021/04/13 03:50:11;;;;;;;4.40;4.10;;;3.00;99.90;;;;;;5063810;28;20673;-76
2021/04/13 03:52:38;;;;;;;4.53;4.13;;;3.00;99.90;;;;;;5064295;28;20196;-75
2021/04/13 03:55:19;;;;;;;4.73;4.33;;;2.90;99.90;;;;;;5064048;28;20209;-75
2021/04/13 03:57:46;;;;;;;4.27;3.97;;;2.80;99.90;;;;;;5065218;28;20223;-75
2021/04/13 04:00:16;;;;;;;4.23;3.90;;;2.70;99.90;;;;;;5075984;28;20688;-76
2021/04/13 04:02:42;;;;;;;4.27;3.97;;;2.60;99.90;;;;;;5075269;28;20238;-75
2021/04/13 04:05:13;;;;;;;4.80;4.40;;;2.70;99.90;;;;;;5073946;28;20681;-75
2021/04/13 04:07:43;;;;;;;4.50;4.10;;;2.70;99.90;;;;;;5070964;28;20910;-75
2021/04/13 04:10:28;;;;;;;4.07;3.70;;;2.70;99.90;;;;;;5081698;28;20248;-76
2021/04/13 04:12:59;;;;;;;4.87;4.40;;;2.70;99.90;;;;;;5104802;28;20190;-75
2021/04/13 04:15:29;;;;;;;5.00;4.60;;;2.70;99.90;;;;;;5100096;28;20222;-75
2021/04/13 04:17:55;;;;;;;4.80;4.40;;;2.60;99.90;;;;;;5100276;28;20255;-75
2021/04/13 04:20:34;;;;;;;4.70;4.30;;;2.70;99.90;;;;;;5096894;28;20205;-76
2021/04/13 04:23:01;;;;;;;4.67;4.30;;;2.50;99.90;;;;;;5100236;28;20498;-76
2021/04/13 04:25:34;;;;;;;5.07;4.57;;;2.50;99.90;;;;;;5099149;28;20202;-75
2021/04/13 04:28:07;;;;;;;5.00;4.70;;;2.60;99.90;;;;;;5104145;28;20215;-75
2021/04/13 04:30:35;;;;;;;4.87;4.47;;;2.50;99.90;;;;;;5098340;28;20786;-75
2021/04/13 04:33:04;;;;;;;5.47;4.97;;;2.40;99.90;;;;;;5104908;28;20206;-75
2021/04/13 04:35:34;;;;;;;5.53;5.13;;;2.40;99.90;;;;;;5094656;28;20210;-75
2021/04/13 04:38:07;;;;;;;5.47;4.97;;;2.50;99.90;;;;;;5096693;28;20214;-75
2021/04/13 04:40:53;;;;;;;6.10;5.60;;;2.40;99.90;;;;;;5100900;28;20198;-75
2021/04/13 04:43:40;;;;;;;6.80;5.80;;;2.30;99.90;;;;;;5099497;28;20202;-75
2021/04/13 04:46:07;;;;;;;6.53;5.80;;;2.40;99.90;;;;;;5101248;28;20552;-75
2021/04/13 04:48:34;;;;;;;6.87;5.77;;;2.40;99.90;;;;;;5098060;28;20739;-74
2021/04/13 04:51:03;;;;;;;6.23;5.70;;;2.30;99.90;;;;;;5103682;28;20202;-75
2021/04/13 04:53:31;;;;;;;6.93;6.33;;;2.20;99.90;;;;;;5099692;28;20546;-75
2021/04/13 04:56:00;;;;;;;6.97;6.30;;;2.30;99.90;;;;;;5099259;28;20230;-75
2021/04/13 04:58:27;;;;;;;7.00;5.70;;;2.30;99.90;;;;;;5095857;28;20260;-75
2021/04/13 05:00:54;;;;;;;7.40;6.10;;;2.30;99.90;;;;;;5096701;28;20202;-75
2021/04/13 05:03:22;;;;;;;6.90;6.13;;;2.30;99.90;;;;;;5103303;28;20202;-75
2021/04/13 05:05:48;;;;;;;7.47;6.47;;;2.40;99.90;;;;;;5098849;28;20199;-75
2021/04/13 05:08:15;;;;;;;6.77;6.20;;;2.40;99.90;;;;;;5099851;28;20227;-75
2021/04/13 05:10:41;;;;;;;6.97;6.37;;;2.30;99.90;;;;;;5101197;28;20217;-75
2021/04/13 05:13:08;;;;;;;6.80;6.20;;;2.50;99.90;;;;;;5089951;28;20195;-75
2021/04/13 05:15:35;;;;;;;7.27;6.60;;;2.50;99.90;;;;;;5093228;28;20516;-75
2021/04/13 05:18:02;;;;;;;7.57;6.87;;;2.40;99.90;;;;;;5095204;28;20711;-72
2021/04/13 05:20:28;;;;;;;8.37;7.47;;;2.50;99.90;;;;;;5094071;28;20714;-74
2021/04/13 05:22:54;;;;;;;7.50;6.80;;;2.60;99.90;;;;;;5098161;28;20195;-75
2021/04/13 05:25:21;;;;;;;7.70;6.97;;;2.70;99.90;;;;;;5104006;27;20240;-75
2021/04/13 05:27:48;;;;;;;9.77;7.17;;;2.80;99.90;;;;;;5110890;28;20213;-76
2021/04/13 05:30:15;;;;;;;8.07;7.27;;;2.80;99.90;;;;;;5095486;28;20199;-75
2021/04/13 05:32:43;;;;;;;7.90;7.20;;;2.70;99.90;;;;;;5080197;28;20210;-75
2021/04/13 05:35:11;;;;;;;9.80;7.23;;;2.80;99.90;;;;;;5070470;28;20599;-75
2021/04/13 05:37:37;;;;;;;8.07;6.77;;;2.60;99.90;;;;;;5069760;28;20231;-74
2021/04/13 05:40:06;;;;;;;8.43;7.47;;;2.60;99.90;;;;;;5069798;28;20214;-75
2021/04/13 05:42:34;;;;;;;8.00;7.30;;;2.60;99.90;;;;;;5069460;28;20247;-75
2021/04/13 05:45:01;;;;;;;7.40;6.70;;;2.60;99.90;;;;;;5084525;28;20573;-75
2021/04/13 05:47:30;;;;;;;7.83;7.03;;;2.60;99.90;;;;;;5096982;28;20221;-75
2021/04/13 05:49:57;;;;;;;7.93;6.97;;;2.60;99.90;;;;;;5100278;28;20199;-75
2021/04/13 05:52:24;;;;;;;9.03;7.60;;;2.60;99.90;;;;;;5095462;28;20291;-74
2021/04/13 05:54:50;;;;;;;8.30;7.50;;;2.70;99.90;;;;;;5098925;27;20240;-75
2021/04/13 05:57:28;;;;;;;8.10;7.30;;;2.70;99.90;;;;;;5109177;28;20689;-75
2021/04/13 05:59:55;;;;;;;8.40;6.30;;;2.70;99.90;;;;;;5109745;28;20197;-75
2021/04/13 06:02:21;;;;;;;7.87;7.10;;;2.70;99.90;;;;;;5089428;28;20207;-74
2021/04/13 06:04:50;;;;;;;7.70;7.00;;;2.70;99.90;;;;;;5089352;28;20207;-74
2021/04/13 06:07:17;;;;;;;8.87;7.30;;;2.70;99.90;;;;;;5089685;28;20210;-75
2021/04/13 06:09:44;;;;;;;7.03;6.43;;;2.70;99.90;;;;;;5089299;28;20568;-74
2021/04/13 06:12:12;;;;;;;8.93;6.60;;;2.80;99.90;;;;;;5089520;28;20210;-75
2021/04/13 06:14:38;;;;;;;10.57;7.17;;;2.70;99.90;;;;;;5088774;28;20238;-75
2021/04/13 06:17:05;;;;;;;7.33;6.63;;;2.70;99.90;;;;;;5088727;28;20631;-75
2021/04/13 06:19:32;;;;;;;8.03;6.27;;;2.80;99.90;;;;;;5088597;28;20198;-75
2021/04/13 06:21:58;;;;;;;7.00;6.30;;;2.80;99.90;;;;;;5088520;28;20203;-75
2021/04/13 06:24:25;;;;;;;7.07;6.37;;;2.70;99.90;;;;;;5089204;28;20271;-74
2021/04/13 06:26:51;;;;;;;6.20;5.70;;;2.90;99.90;;;;;;5088987;28;20206;-75
2021/04/13 06:29:17;;;;;;;7.07;6.30;;;3.00;99.90;;;;;;5079869;28;20200;-74
2021/04/13 06:31:44;;;;;;;6.87;6.23;;;3.10;99.90;;;;;;5075487;28;20211;-74
2021/04/13 06:34:10;;;;;;;10.90;5.70;;;3.10;99.90;;;;;;5083119;28;20988;-74
2021/04/13 06:36:38;;;;;;;10.70;6.23;;;3.10;99.90;;;;;;5085170;28;20227;-77
2021/04/13 06:39:06;;;;;;;6.27;5.67;;;3.20;99.90;;;;;;5081264;28;20205;-75
2021/04/13 06:42:08;;;;;;;6.07;5.57;;;3.30;99.90;;;;;;5079798;28;20208;-75
2021/04/13 06:44:56;;;;;;;6.33;5.77;;;3.30;99.90;;;;;;5077319;28;20606;-75
2021/04/13 06:47:39;;;;;;;6.03;5.50;;;3.30;99.90;;;;;;5087754;28;20231;-74
2021/04/13 06:50:17;;;;;;;6.17;5.57;;;3.20;99.90;;;;;;5086005;28;20212;-74
2021/04/13 06:52:55;;;;;;;6.03;5.43;;;3.20;99.90;;;;;;5086803;28;20218;-74
2021/04/13 06:55:36;;;;;;;6.07;5.50;;;3.20;99.90;;;;;;5093399;28;20243;-74
2021/04/13 06:58:12;;;;;;;7.30;5.30;;;3.30;99.90;;;;;;5082050;28;20688;-74
2021/04/13 07:00:53;;;;;;;12.50;5.60;;;3.30;99.90;;;;;;5096326;28;20198;-74
2021/04/13 07:03:27;;;;;;;6.03;5.43;;;3.40;99.90;;;;;;5093060;28;20198;-74
2021/04/13 07:05:59;;;;;;;7.40;6.10;;;3.50;99.90;;;;;;5096977;28;20193;-74
2021/04/13 07:08:31;;;;;;;15.20;5.73;;;3.60;99.90;;;;;;5067850;28;20285;-74
2021/04/13 07:11:03;;;;;;;6.50;5.83;;;3.80;99.90;;;;;;5067750;28;20647;-75
2021/04/13 07:13:39;;;;;;;6.00;5.50;;;3.90;99.90;;;;;;5068206;28;20194;-75
2021/04/13 07:16:12;;;;;;;5.60;4.90;;;3.90;99.90;;;;;;5067417;28;20242;-74
2021/04/13 07:18:43;;;;;;;5.37;4.87;;;3.90;99.90;;;;;;5068099;28;20193;-75
2021/04/13 07:21:13;;;;;;;5.07;4.57;;;3.90;99.90;;;;;;5067984;28;20262;-74
2021/04/13 07:23:43;;;;;;;7.37;5.30;;;3.90;99.90;;;;;;5067927;28;20199;-74
2021/04/13 07:26:13;;;;;;;7.17;4.80;;;4.00;99.90;;;;;;5067799;28;20306;-75
2021/04/13 07:28:52;;;;;;;5.40;4.90;;;4.20;99.90;;;;;;5080084;28;20202;-75
2021/04/13 07:31:23;;;;;;;5.03;4.53;;;4.40;99.90;;;;;;5084718;28;20588;-73
2021/04/13 07:33:49;;;;;;;4.47;4.07;;;4.70;99.90;;;;;;5071274;28;20728;-75
2021/04/13 07:36:21;;;;;;;6.33;4.70;;;4.70;99.90;;;;;;5079477;28;20197;-74
2021/04/13 07:38:49;;;;;;;6.17;4.23;;;4.60;99.90;;;;;;5083658;28;20194;-75
2021/04/13 07:41:23;;;;;;;5.17;4.60;;;4.70;99.90;;;;;;5101836;28;20195;-75
2021/04/13 07:43:57;;;;;;;4.93;4.43;;;4.70;99.90;;;;;;5098593;28;20190;-74
2021/04/13 07:46:44;;;;;;;5.13;4.40;;;4.80;99.90;;;;;;5100204;28;20186;-75
2021/04/13 07:49:14;;;;;;;8.27;4.73;;;4.80;99.90;;;;;;5097513;28;20768;-75
2021/04/13 07:51:59;;;;;;;5.83;4.97;;;4.80;99.90;;;;;;5102650;28;20207;-75
2021/04/13 07:54:40;;;;;;;8.77;4.90;;;4.70;99.90;;;;;;5102029;28;20240;-74
2021/04/13 07:57:13;;;;;;;4.90;3.97;;;4.70;99.90;;;;;;5096034;28;20210;-75
2021/04/13 07:59:54;;;;;;;6.73;4.43;;;4.80;99.90;;;;;;5101584;28;20206;-75
2021/04/13 08:02:20;;;;;;;7.17;3.93;;;4.80;99.90;;;;;;5096970;28;20191;-75
2021/04/13 08:04:48;;;;;;;4.60;4.03;;;5.00;99.90;;;;;;5104979;28;20197;-74
2021/04/13 08:07:16;;;;;;;4.60;4.20;;;4.90;99.90;;;;;;5086244;28;20217;-75
2021/04/13 08:09:46;;;;;;;4.03;3.73;;;5.00;99.90;;;;;;5078833;28;20550;-75
2021/04/13 08:12:28;;;;;;;4.33;3.97;;;5.00;99.90;;;;;;5110705;28;20243;-76
2021/04/13 08:15:14;;;;;;;5.20;3.90;;;5.20;99.90;;;;;;5107393;28;20241;-75
2021/04/13 08:18:04;;;;;;;3.67;3.20;;;5.20;99.90;;;;;;5089299;28;20219;-75
2021/04/13 08:20:32;;;;;;;3.37;2.97;;;5.20;99.90;;;;;;5103291;28;20239;-75
2021/04/13 08:23:03;;;;;;;5.53;3.40;;;5.30;99.90;;;;;;5101398;28;20562;-76
2021/04/13 08:25:39;;;;;;;4.13;3.80;;;5.10;99.90;;;;;;5107699;28;20198;-76
2021/04/13 08:28:28;;;;;;;3.60;3.30;;;5.10;99.90;;;;;;5093573;28;20198;-75
2021/04/13 08:34:18;;;;;;;3.80;3.10;;;5.10;99.90;;;;;;5059588;28;20194;-75
2021/04/13 08:36:50;;;;;;;7.53;3.33;;;5.20;99.90;;;;;;5096044;28;20229;-75
2021/04/13 08:39:24;;;;;;;6.13;2.97;;;5.40;99.90;;;;;;5098944;28;20576;-75
2021/04/13 08:42:04;;;;;;;3.47;2.80;;;5.50;99.90;;;;;;5098325;28;20197;-75
2021/04/13 08:44:37;;;;;;;3.20;2.90;;;5.50;99.90;;;;;;5100244;28;20224;-75
2021/04/13 08:47:12;;;;;;;4.03;2.83;;;5.40;99.90;;;;;;5101077;28;20380;-75
2021/04/13 08:49:53;;;;;;;4.63;3.43;;;5.50;99.90;;;;;;5101704;28;20187;-76
2021/04/13 08:52:38;;;;;;;3.63;3.10;;;5.60;99.90;;;;;;5094449;28;20195;-75
2021/04/13 08:55:12;;;;;;;3.50;2.70;;;5.50;99.90;;;;;;5098134;28;20218;-76
2021/04/13 08:57:40;;;;;;;5.73;3.03;;;5.60;99.90;;;;;;5101428;28;20241;-76
2021/04/13 09:00:31;;;;;;;5.13;2.50;;;5.70;99.90;;;;;;5090509;28;20199;-77
2021/04/13 09:03:00;;;;;;;6.57;2.93;;;5.70;99.90;;;;;;5090112;28;20202;-76
2021/04/13 09:05:28;;;;;;;4.27;2.60;;;5.90;99.90;;;;;;5088123;28;20198;-76
2021/04/13 09:07:59;;;;;;;4.33;2.60;;;6.00;99.90;;;;;;5099400;28;20199;-76
2021/04/13 09:10:31;;;;;;;3.50;2.70;;;6.00;99.90;;;;;;5098120;28;20653;-75
2021/04/13 09:13:09;;;;;;;2.90;2.60;;;6.00;99.90;;;;;;5103659;28;20191;-76
2021/04/13 09:15:47;;;;;;;4.93;3.00;;;6.10;99.90;;;;;;5099287;28;20230;-76
2021/04/13 09:18:17;;;;;;;4.37;2.60;;;6.20;99.90;;;;;;5097854;28;20221;-75
2021/04/13 09:20:47;;;;;;;2.80;2.20;;;6.30;99.90;;;;;;5103406;28;20202;-75
2021/04/13 09:23:24;;;;;;;2.77;2.43;;;6.40;99.90;;;;;;5097260;28;20198;-76
2021/04/13 09:26:09;;;;;;;3.83;2.83;;;6.40;99.90;;;;;;5093931;28;20198;-76
2021/04/13 09:28:48;;;;;;;3.77;2.60;;;6.20;99.90;;;;;;5097602;28;20216;-76
2021/04/13 09:31:19;;;;;;;3.60;2.63;;;6.20;99.90;;;;;;5095777;28;20239;-76
2021/04/13 09:33:46;;;;;;;6.30;2.50;;;6.30;99.90;;;;;;5091828;28;20195;-76
2021/04/13 09:36:26;;;;;;;4.13;2.40;;;6.60;99.90;;;;;;5100356;28;20202;-76
2021/04/13 09:39:33;;;;;;;5.63;2.97;;;6.80;99.90;;;;;;5097849;28;20202;-75
2021/04/13 09:42:48;;;;;;;4.33;2.50;;;6.90;99.90;;;;;;5092781;28;20661;-77
2021/04/13 09:45:25;;;;;;;4.83;2.47;;;6.80;99.90;;;;;;5073384;28;20202;-76
2021/04/13 09:48:08;;;;;;;5.60;2.63;;;6.70;99.90;;;;;;5097868;28;20239;-76
2021/04/13 09:50:44;;;;;;;5.10;3.00;;;6.80;99.90;;;;;;5099966;28;20552;-75
2021/04/13 09:53:46;;;;;;;4.67;2.87;;;6.90;99.90;;;;;;5093323;28;20187;-76
2021/04/13 09:56:39;;;;;;;2.90;2.43;;;7.00;99.90;;;;;;5092647;28;20256;-76
2021/04/13 09:59:40;;;;;;;3.90;2.20;;;7.00;99.90;;;;;;5102096;28;20549;-76
2021/04/13 10:02:17;;;;;;;4.50;2.23;;;6.80;99.90;;;;;;5091008;28;20187;-75
2021/04/13 10:04:53;;;;;;;3.13;2.03;;;6.90;99.90;;;;;;5102519;28;20343;-75
2021/04/13 10:07:30;;;;;;;3.30;2.13;;;6.90;99.90;;;;;;5106116;28;20198;-76
2021/04/13 10:09:58;;;;;;;6.77;2.53;;;6.90;99.90;;;;;;5092240;28;20295;-75
2021/04/13 10:12:44;;;;;;;4.00;2.50;;;7.10;99.90;;;;;;5094344;28;20203;-76
2021/04/13 10:15:32;;;;;;;4.23;2.10;;;7.10;99.90;;;;;;5099930;28;20226;-76
2021/04/13 10:18:24;;;;;;;4.00;2.10;;;7.10;99.90;;;;;;5091808;28;20630;-76
2021/04/13 10:20:59;;;;;;;3.67;2.03;;;7.10;99.90;;;;;;5057838;28;20206;-75
2021/04/13 10:23:35;;;;;;;3.23;2.57;;;7.00;99.90;;;;;;5099702;28;20185;-75
2021/04/13 10:26:42;;;;;;;7.13;2.17;;;7.00;99.90;;;;;;5102173;28;20190;-75
2021/04/13 10:29:41;;;;;;;3.60;2.10;;;7.00;99.90;;;;;;5096966;28;20216;-75
2021/04/13 10:32:28;;;;;;;3.37;2.40;;;6.90;99.90;;;;;;5062956;28;20679;-76
2021/04/13 10:35:36;;;;;;;2.60;1.97;;;7.10;99.90;;;;;;5100444;28;20633;-76
2021/04/13 10:38:30;;;;;;;6.30;2.37;;;7.00;99.90;;;;;;5096334;28;20248;-76
2021/04/13 10:41:35;;;;;;;3.30;1.80;;;7.30;99.90;;;;;;5093157;28;20198;-76
2021/04/13 10:44:40;;;;;;;3.10;2.03;;;7.70;99.90;;;;;;5090554;28;20275;-76
2021/04/13 10:47:33;;;;;;;3.90;2.50;;;7.40;99.90;;;;;;5096095;28;20190;-75
2021/04/13 10:50:18;;;;;;;4.80;2.17;;;7.50;99.90;;;;;;5096122;28;20206;-76
2021/04/13 10:53:31;;;;;;;6.13;2.03;;;7.70;99.90;;;;;;5090577;28;20537;-76
2021/04/13 10:56:12;;;;;;;2.83;2.20;;;7.90;99.90;;;;;;5073052;28;20201;-76
2021/04/13 10:59:16;;;;;;;9.37;2.30;;;8.30;99.90;;;;;;5097859;28;20254;-77
2021/04/13 11:01:59;;;;;;;6.43;2.20;;;8.40;99.90;;;;;;5097958;28;20187;-76
2021/04/13 11:05:03;;;;;;;4.40;1.90;;;8.30;99.90;;;;;;5094144;28;20767;-76
2021/04/13 11:08:09;;;;;;;5.13;2.20;;;8.50;99.90;;;;;;5096361;28;20191;-76
2021/04/13 11:11:27;;;;;;;5.93;1.70;;;8.20;99.90;;;;;;5094500;28;20193;-76
2021/04/13 11:14:21;;;;;;;4.10;1.53;;;8.20;99.90;;;;;;5082218;28;20194;-76
2021/04/13 11:17:30;;;;;;;3.17;1.47;;;8.40;99.90;;;;;;5088194;28;20230;-75
2021/04/13 11:20:17;;;;;;;4.77;1.80;;;8.50;99.90;;;;;;5051484;28;20200;-76
2021/04/13 11:23:10;;;;;;;4.73;1.93;;;8.50;99.90;;;;;;5079049;28;20294;-76
2021/04/13 11:26:19;;;;;;;1.97;1.40;;;8.40;99.90;;;;;;5095268;28;20191;-76
2021/04/13 11:29:09;;;;;;;3.97;1.80;;;8.70;99.90;;;;;;5095025;28;20194;-76
2021/04/13 11:31:56;;;;;;;5.30;1.90;;;9.10;99.90;;;;;;5095435;28;20183;-76
2021/04/13 11:34:41;;;;;;;2.37;1.67;;;9.40;99.90;;;;;;5097683;28;20241;-76
2021/04/13 11:37:25;;;;;;;4.40;2.00;;;9.50;99.90;;;;;;5097930;28;20558;-76
2021/04/13 11:40:05;;;;;;;2.27;1.50;;;9.80;99.90;;;;;;5093373;28;20226;-76
2021/04/13 11:42:34;;;;;;;5.07;1.80;;;9.90;99.90;;;;;;5095827;28;20190;-73
2021/04/13 11:45:20;;;;;;;3.10;1.80;;;10.10;99.90;;;;;;5097180;28;20198;-74
2021/04/13 11:47:53;;;;;;;2.20;1.80;;;10.30;99.90;;;;;;5080300;28;20195;-76
2021/04/13 11:50:28;;;;;;;5.33;1.67;;;10.50;99.90;;;;;;5100990;28;20204;-76
2021/04/13 11:53:01;;;;;;;3.97;1.73;;;10.40;99.90;;;;;;5099267;28;20195;-76
2021/04/13 11:55:44;;;;;;;5.37;1.80;;;10.10;99.90;;;;;;5096249;28;20255;-76
2021/04/13 11:58:15;;;;;;;4.57;1.87;;;9.70;99.90;;;;;;5094696;28;20249;-77
2021/04/13 12:00:42;;;;;;;4.57;1.83;;;9.60;99.90;;;;;;5095684;28;20572;-76
2021/04/13 12:03:33;;;;;;;4.67;1.90;;;9.70;99.90;;;;;;5089718;28;20203;-76
2021/04/13 12:06:35;;;;;;;5.43;1.67;;;10.10;99.90;;;;;;5095203;28;20195;-76
2021/04/13 12:09:01;;;;;;;2.43;1.70;;;10.40;99.90;;;;;;5091488;28;20677;-76
2021/04/13 12:11:46;;;;;;;4.03;1.17;;;9.90;98.50;;;;;;5095360;28;20206;-76
2021/04/13 12:14:44;;;;;;;2.63;1.70;;;9.80;99.40;;;;;;5096403;28;20194;-77
2021/04/13 12:17:38;;;;;;;2.10;1.33;;;9.60;99.90;;;;;;5097250;28;20763;-76
2021/04/13 12:20:42;;;;;;;1.47;1.30;;;9.60;99.90;;;;;;5102914;28;20206;-76
2021/04/13 12:23:48;;;;;;;2.10;1.50;;;9.30;99.90;;;;;;5083774;28;20203;-76
2021/04/13 12:26:30;;;;;;;4.47;1.40;;;9.00;99.90;;;;;;5066600;28;20211;-76
2021/04/13 12:28:57;;;;;;;6.70;1.90;;;8.80;99.90;;;;;;5070619;28;20196;-76
2021/04/13 12:31:25;;;;;;;3.20;1.67;;;8.70;99.90;;;;;;5071193;28;20286;-76
2021/04/13 12:34:00;;;;;;;3.03;1.37;;;8.60;99.90;;;;;;5070800;28;20613;-75
2021/04/13 12:36:50;;;;;;;2.90;1.40;;;8.50;99.90;;;;;;5070993;28;20237;-76
2021/04/13 12:39:51;;;;;;;6.17;1.30;;;8.60;99.90;;;;;;5071089;28;20207;-73
2021/04/13 12:42:39;;;;;;;3.33;1.30;;;8.70;99.90;;;;;;5071161;28;20298;-76
2021/04/13 12:45:41;;;;;;;3.27;1.10;;;8.70;99.90;;;;;;5086298;28;20236;-76
2021/04/13 12:48:17;;;;;;;5.37;1.23;;;8.60;99.90;;;;;;5099512;28;20281;-76
2021/04/13 12:50:45;;;;;;;2.73;1.20;;;8.80;99.90;;;;;;5101380;28;20190;-77
2021/04/13 12:53:16;;;;;;;4.37;1.30;;;9.30;99.90;;;;;;5099958;28;20199;-75
2021/04/13 12:55:43;;;;;;;2.13;1.30;;;9.50;99.90;;;;;;5099058;27;20195;-72
2021/04/13 12:58:13;;;;;;;3.70;1.60;;;9.50;99.90;;;;;;5090374;28;20231;-76
2021/04/13 13:00:44;;;;;;;3.20;1.40;;;9.50;99.90;;;;;;5090135;28;20697;-76
2021/04/13 13:03:16;;;;;;;2.00;1.30;;;9.30;99.50;;;;;;5090547;28;20601;-76
2021/04/13 13:05:44;;;;;;;2.03;1.40;;;9.00;99.70;;;;;;5090461;28;20259;-76
2021/04/13 13:08:16;;;;;;;4.93;1.47;;;8.80;99.70;;;;;;5090491;28;20214;-76
2021/04/13 13:10:45;;;;;;;2.73;1.20;;;8.60;99.30;;;;;;5090925;28;20256;-76
2021/04/13 13:13:17;;;;;;;2.40;1.40;;;8.80;99.90;;;;;;5090283;28;20582;-76
2021/04/13 13:15:44;;;;;;;4.00;1.60;;;9.10;99.90;;;;;;5089469;28;20268;-77
2021/04/13 13:18:17;;;;;;;12.70;1.97;;;9.40;99.90;;;;;;5086815;28;20231;-77
2021/04/13 13:20:44;;;;;;;2.70;1.50;;;9.80;99.90;;;;;;5082946;28;20200;-76
2021/04/13 13:23:16;;;;;;;3.50;1.60;;;10.10;99.00;;;;;;5078468;28;20202;-77
2021/04/13 13:25:43;;;;;;;3.23;1.20;;;10.30;98.40;;;;;;5078168;28;20257;-76
2021/04/13 13:28:12;;;;;;;1.53;1.20;;;10.40;98.10;;;;;;5080726;28;20211;-77
2021/04/13 13:30:39;;;;;;;3.60;1.50;;;10.70;98.10;;;;;;5087822;28;20199;-77
2021/04/13 13:33:06;;;;;;;3.03;1.30;;;10.90;98.00;;;;;;5095065;28;20237;-77
2021/04/13 13:35:32;;;;;;;2.10;1.30;;;11.00;96.80;;;;;;5100863;28;20198;-76
2021/04/13 13:38:01;;;;;;;5.83;1.50;;;10.90;97.00;;;;;;5098593;28;20692;-76
2021/04/13 13:40:31;;;;;;;5.00;1.60;;;10.70;95.80;;;;;;5098867;28;20217;-77